DLH249 EDDF-EBAW
Flight info
| Callsign | DLH249 |
|---|---|
| Flight time | N/A |
| Altitude | 22000 |
| Route | SOBRA2L/18 SOBRA Y180 RUDOT DCT LNO DCT ULTAV DCT ERPUD |
| Aircraft | A20N/M-SDE2E3FGHIRWXY/LB1 |
Departure
| Time | 2026-04-15 10:29 |
|---|---|
| Airport | Frankfurt Main Airport (EDDF) |
Arrival
| Time | N/A |
|---|---|
| Airport | Antwerp International Airport (Deurne) (EBAW) |
| Time | Latitude | Longitude | Altitude | Speed | Heading |
|---|---|---|---|---|---|
| 2026-04-15 09:49 | 50.04687 | 8.56701 | 362 ft | 0 kts | 115° |
| 2026-04-15 10:13 | 50.04689 | 8.56695 | 362 ft | 2 kts | 115° |
| 2026-04-15 10:14 | 50.04697 | 8.56668 | 359 ft | 3 kts | 120° |
| 2026-04-15 10:14 | 50.04708 | 8.56641 | 358 ft | 3 kts | 129° |
| 2026-04-15 10:14 | 50.04722 | 8.56620 | 363 ft | 3 kts | 158° |
| 2026-04-15 10:14 | 50.04734 | 8.56615 | 362 ft | 2 kts | 226° |
| 2026-04-15 10:15 | 50.04736 | 8.56619 | 361 ft | 0 kts | 233° |
| 2026-04-15 10:19 | 50.04729 | 8.56602 | 359 ft | 5 kts | 233° |
| 2026-04-15 10:19 | 50.04692 | 8.56541 | 358 ft | 10 kts | 212° |
| 2026-04-15 10:19 | 50.04617 | 8.56488 | 357 ft | 14 kts | 204° |
| 2026-04-15 10:19 | 50.04550 | 8.56441 | 358 ft | 1 kts | 206° |
| 2026-04-15 10:20 | 50.04519 | 8.56396 | 359 ft | 11 kts | 237° |
| 2026-04-15 10:20 | 50.04494 | 8.56293 | 358 ft | 0 kts | 251° |
| 2026-04-15 10:20 | 50.04491 | 8.56282 | 357 ft | 0 kts | 251° |
| 2026-04-15 10:21 | 50.04490 | 8.56276 | 355 ft | 2 kts | 251° |
| 2026-04-15 10:21 | 50.04479 | 8.56228 | 361 ft | 7 kts | 251° |
| 2026-04-15 10:21 | 50.04457 | 8.56138 | 357 ft | 11 kts | 249° |
| 2026-04-15 10:21 | 50.04413 | 8.56026 | 356 ft | 13 kts | 206° |
| 2026-04-15 10:22 | 50.04332 | 8.56060 | 357 ft | 14 kts | 159° |
| 2026-04-15 10:22 | 50.04290 | 8.56127 | 356 ft | 9 kts | 98° |
| 2026-04-15 10:22 | 50.04275 | 8.56217 | 355 ft | 8 kts | 146° |
| 2026-04-15 10:22 | 50.04209 | 8.56259 | 357 ft | 12 kts | 158° |
| 2026-04-15 10:23 | 50.04126 | 8.56260 | 352 ft | 14 kts | 225° |
| 2026-04-15 10:23 | 50.04086 | 8.56107 | 356 ft | 17 kts | 250° |
| 2026-04-15 10:23 | 50.04038 | 8.55912 | 357 ft | 21 kts | 250° |
| 2026-04-15 10:23 | 50.03999 | 8.55747 | 350 ft | 6 kts | 249° |
| 2026-04-15 10:24 | 50.03978 | 8.55662 | 353 ft | 11 kts | 250° |
| 2026-04-15 10:24 | 50.03948 | 8.55531 | 356 ft | 14 kts | 250° |
| 2026-04-15 10:24 | 50.03910 | 8.55369 | 351 ft | 18 kts | 250° |
| 2026-04-15 10:24 | 50.03863 | 8.55172 | 354 ft | 21 kts | 249° |
| 2026-04-15 10:25 | 50.03807 | 8.54943 | 357 ft | 24 kts | 250° |
| 2026-04-15 10:25 | 50.03745 | 8.54682 | 349 ft | 27 kts | 249° |
| 2026-04-15 10:25 | 50.03704 | 8.54508 | 345 ft | 17 kts | 250° |
| 2026-04-15 10:25 | 50.03660 | 8.54325 | 344 ft | 20 kts | 249° |
| 2026-04-15 10:26 | 50.03609 | 8.54111 | 342 ft | 23 kts | 249° |
| 2026-04-15 10:26 | 50.03550 | 8.53865 | 340 ft | 26 kts | 250° |
| 2026-04-15 10:26 | 50.03484 | 8.53590 | 339 ft | 28 kts | 249° |
| 2026-04-15 10:26 | 50.03416 | 8.53304 | 335 ft | 29 kts | 250° |
| 2026-04-15 10:27 | 50.03359 | 8.53069 | 334 ft | 12 kts | 249° |
| 2026-04-15 10:27 | 50.03324 | 8.52921 | 333 ft | 17 kts | 250° |
| 2026-04-15 10:27 | 50.03281 | 8.52741 | 333 ft | 19 kts | 249° |
| 2026-04-15 10:27 | 50.03185 | 8.52602 | 333 ft | 20 kts | 195° |
| 2026-04-15 10:28 | 50.03035 | 8.52598 | 331 ft | 23 kts | 179° |
| 2026-04-15 10:28 | 50.02963 | 8.52599 | 335 ft | 0 kts | 180° |
| 2026-04-15 10:29 | 50.02706 | 8.52601 | 333 ft | 78 kts | 179° |
| 2026-04-15 10:29 | 50.01934 | 8.52609 | 332 ft | 140 kts | 179° |
| 2026-04-15 10:29 | 50.00391 | 8.52617 | 471 ft | 182 kts | 180° |
| 2026-04-15 10:29 | 49.99561 | 8.52570 | 1011 ft | 168 kts | 181° |
| 2026-04-15 10:30 | 49.98438 | 8.52538 | 1810 ft | 164 kts | 178° |
| 2026-04-15 10:30 | 49.97266 | 8.52591 | 2410 ft | 175 kts | 175° |
| 2026-04-15 10:30 | 49.95990 | 8.52720 | 2964 ft | 195 kts | 174° |
| 2026-04-15 10:30 | 49.94566 | 8.52879 | 3545 ft | 209 kts | 174° |
| 2026-04-15 10:31 | 49.93063 | 8.53035 | 3973 ft | 225 kts | 174° |
| 2026-04-15 10:31 | 49.91461 | 8.53178 | 4254 ft | 235 kts | 175° |
| 2026-04-15 10:31 | 49.89837 | 8.53308 | 5313 ft | 230 kts | 175° |
| 2026-04-15 10:31 | 49.88244 | 8.53411 | 6399 ft | 229 kts | 180° |
| 2026-04-15 10:32 | 49.86643 | 8.53102 | 7222 ft | 237 kts | 194° |
| 2026-04-15 10:32 | 49.85069 | 8.52249 | 8004 ft | 246 kts | 200° |
| 2026-04-15 10:32 | 49.83402 | 8.51274 | 8546 ft | 267 kts | 200° |
| 2026-04-15 10:32 | 49.81610 | 8.50252 | 9223 ft | 279 kts | 200° |
| 2026-04-15 10:33 | 49.79792 | 8.49224 | 10145 ft | 283 kts | 201° |
| 2026-04-15 10:33 | 49.78038 | 8.47745 | 10802 ft | 296 kts | 219° |
| 2026-04-15 10:33 | 49.76653 | 8.45201 | 11108 ft | 318 kts | 243° |
| 2026-04-15 10:33 | 49.76010 | 8.41881 | 11489 ft | 335 kts | 266° |
| 2026-04-15 10:34 | 49.76246 | 8.38283 | 12313 ft | 338 kts | 282° |
| 2026-04-15 10:34 | 49.76839 | 8.34738 | 13179 ft | 342 kts | 285° |
| 2026-04-15 10:34 | 49.77490 | 8.31170 | 14009 ft | 347 kts | 285° |
| 2026-04-15 10:34 | 49.78132 | 8.27558 | 14761 ft | 351 kts | 285° |
| 2026-04-15 10:35 | 49.78757 | 8.23887 | 15473 ft | 355 kts | 284° |
| 2026-04-15 10:35 | 49.79371 | 8.20147 | 16162 ft | 360 kts | 284° |
| 2026-04-15 10:35 | 49.79980 | 8.16360 | 16879 ft | 364 kts | 284° |
| 2026-04-15 10:35 | 49.80588 | 8.12547 | 17641 ft | 367 kts | 284° |
| 2026-04-15 10:36 | 49.81204 | 8.08669 | 18245 ft | 373 kts | 284° |
| 2026-04-15 10:36 | 49.81816 | 8.04800 | 18897 ft | 376 kts | 284° |
| 2026-04-15 10:36 | 49.82442 | 8.00838 | 19468 ft | 380 kts | 284° |
| 2026-04-15 10:36 | 49.83070 | 7.96853 | 20077 ft | 384 kts | 284° |
| 2026-04-15 10:37 | 49.83704 | 7.92814 | 20667 ft | 386 kts | 284° |
| 2026-04-15 10:37 | 49.84343 | 7.88743 | 21230 ft | 391 kts | 284° |
| 2026-04-15 10:37 | 49.84986 | 7.84632 | 21784 ft | 394 kts | 284° |
| 2026-04-15 10:37 | 49.85633 | 7.80486 | 21949 ft | 395 kts | 284° |
| 2026-04-15 10:38 | 49.86278 | 7.76337 | 22058 ft | 396 kts | 284° |
| 2026-04-15 10:38 | 49.86931 | 7.72186 | 22153 ft | 396 kts | 284° |
| 2026-04-15 10:38 | 49.87580 | 7.68059 | 22240 ft | 393 kts | 284° |
| 2026-04-15 10:38 | 49.88224 | 7.63913 | 22243 ft | 395 kts | 284° |
| 2026-04-15 10:39 | 49.88855 | 7.59824 | 22237 ft | 393 kts | 284° |
| 2026-04-15 10:39 | 49.89494 | 7.55677 | 22236 ft | 395 kts | 284° |
| 2026-04-15 10:39 | 49.90130 | 7.51538 | 22236 ft | 395 kts | 284° |
| 2026-04-15 10:39 | 49.90766 | 7.47388 | 22235 ft | 393 kts | 284° |
| 2026-04-15 10:40 | 49.91399 | 7.43248 | 22229 ft | 395 kts | 284° |
| 2026-04-15 10:40 | 49.92028 | 7.39115 | 22227 ft | 393 kts | 284° |
| 2026-04-15 10:40 | 49.92655 | 7.34995 | 22239 ft | 393 kts | 284° |
| 2026-04-15 10:40 | 49.93286 | 7.30846 | 22243 ft | 395 kts | 284° |
| 2026-04-15 10:41 | 49.93914 | 7.26699 | 22234 ft | 393 kts | 284° |
| 2026-04-15 10:41 | 49.94542 | 7.22539 | 22239 ft | 395 kts | 284° |
| 2026-04-15 10:41 | 49.95166 | 7.18390 | 22236 ft | 394 kts | 284° |
| 2026-04-15 10:41 | 49.95779 | 7.14309 | 22238 ft | 393 kts | 284° |
| 2026-04-15 10:42 | 49.96400 | 7.10162 | 22237 ft | 394 kts | 284° |
| 2026-04-15 10:42 | 49.97018 | 7.06021 | 22231 ft | 393 kts | 284° |
| 2026-04-15 10:42 | 49.97636 | 7.01873 | 22229 ft | 394 kts | 283° |
| 2026-04-15 10:42 | 49.98253 | 6.97724 | 22224 ft | 394 kts | 284° |
| 2026-04-15 10:43 | 49.98954 | 6.93613 | 22230 ft | 393 kts | 290° |
| 2026-04-15 10:43 | 50.00041 | 6.89720 | 22224 ft | 393 kts | 298° |
| 2026-04-15 10:43 | 50.01510 | 6.86135 | 22226 ft | 393 kts | 307° |
| 2026-04-15 10:43 | 50.03210 | 6.82803 | 22228 ft | 393 kts | 308° |
| 2026-04-15 10:44 | 50.04906 | 6.79465 | 22230 ft | 393 kts | 308° |
| 2026-04-15 10:44 | 50.06596 | 6.76118 | 22228 ft | 393 kts | 308° |
| 2026-04-15 10:44 | 50.08284 | 6.72768 | 22228 ft | 392 kts | 308° |
| 2026-04-15 10:44 | 50.09965 | 6.69428 | 22223 ft | 389 kts | 308° |
| 2026-04-15 10:45 | 50.11641 | 6.66095 | 22225 ft | 392 kts | 308° |
| 2026-04-15 10:45 | 50.13321 | 6.62752 | 22222 ft | 392 kts | 308° |
| 2026-04-15 10:45 | 50.15005 | 6.59397 | 22218 ft | 393 kts | 308° |
| 2026-04-15 10:45 | 50.16681 | 6.56056 | 22199 ft | 389 kts | 308° |
| 2026-04-15 10:46 | 50.18342 | 6.52739 | 22201 ft | 388 kts | 308° |
| 2026-04-15 10:46 | 50.19989 | 6.49445 | 22201 ft | 392 kts | 308° |
| 2026-04-15 10:46 | 50.21687 | 6.46047 | 22202 ft | 389 kts | 308° |
| 2026-04-15 10:46 | 50.23327 | 6.42759 | 22201 ft | 392 kts | 307° |
| 2026-04-15 10:47 | 50.25010 | 6.39382 | 22213 ft | 395 kts | 307° |
| 2026-04-15 10:47 | 50.26693 | 6.36001 | 22206 ft | 391 kts | 307° |
| 2026-04-15 10:47 | 50.32788 | 6.23721 | 22178 ft | 389 kts | 307° |
| 2026-04-15 10:47 | 50.39436 | 6.10253 | 22228 ft | 393 kts | 307° |
| 2026-04-15 10:48 | 50.46072 | 5.96743 | 22201 ft | 390 kts | 306° |
| 2026-04-15 10:48 | 50.52705 | 5.83164 | 22162 ft | 393 kts | 306° |
| 2026-04-15 10:48 | 50.59663 | 5.69948 | 22243 ft | 393 kts | 318° |
| 2026-04-15 10:48 | 50.66941 | 5.61544 | 22240 ft | 394 kts | 322° |
| 2026-04-15 10:49 | 50.73635 | 5.53843 | 22214 ft | 393 kts | 322° |
| 2026-04-15 10:49 | 50.75855 | 5.51288 | 22217 ft | 394 kts | 322° |
| 2026-04-15 10:49 | 50.78032 | 5.48769 | 22140 ft | 391 kts | 320° |
| 2026-04-15 10:49 | 50.80076 | 5.45967 | 21728 ft | 387 kts | 313° |
| 2026-04-15 10:50 | 50.81939 | 5.42907 | 21127 ft | 384 kts | 312° |
| 2026-04-15 10:50 | 50.83784 | 5.39880 | 20506 ft | 380 kts | 312° |
| 2026-04-15 10:50 | 50.85612 | 5.36891 | 19818 ft | 377 kts | 312° |
| 2026-04-15 10:50 | 50.87429 | 5.33918 | 19152 ft | 374 kts | 312° |
| 2026-04-15 10:51 | 50.89224 | 5.30975 | 18532 ft | 370 kts | 312° |
| 2026-04-15 10:51 | 50.91009 | 5.28048 | 17782 ft | 367 kts | 312° |
| 2026-04-15 10:51 | 50.92774 | 5.25148 | 17056 ft | 364 kts | 312° |
| 2026-04-15 10:51 | 50.94521 | 5.22277 | 16400 ft | 359 kts | 312° |
| 2026-04-15 10:52 | 50.96249 | 5.19430 | 15736 ft | 356 kts | 312° |
| 2026-04-15 10:52 | 50.97937 | 5.16645 | 15126 ft | 352 kts | 311° |
| 2026-04-15 10:52 | 51.00861 | 5.11815 | 13991 ft | 349 kts | 311° |
| 2026-04-15 10:52 | 51.06302 | 4.99892 | 11341 ft | 334 kts | 288° |
| 2026-04-15 10:53 | 51.07153 | 4.96264 | 10739 ft | 330 kts | 289° |
| 2026-04-15 10:53 | 51.07981 | 4.92883 | 10155 ft | 327 kts | 289° |
| 2026-04-15 10:53 | 51.08794 | 4.89597 | 9969 ft | 310 kts | 288° |
| 2026-04-15 10:53 | 51.09557 | 4.86490 | 9782 ft | 294 kts | 288° |
| 2026-04-15 10:54 | 51.10283 | 4.83495 | 9307 ft | 284 kts | 288° |
| 2026-04-15 10:54 | 51.10986 | 4.80610 | 8717 ft | 276 kts | 288° |
| 2026-04-15 10:54 | 51.11668 | 4.77782 | 8026 ft | 273 kts | 288° |
| 2026-04-15 10:54 | 51.12351 | 4.74947 | 7169 ft | 276 kts | 288° |
| 2026-04-15 10:55 | 51.13050 | 4.72108 | 6333 ft | 280 kts | 288° |
| 2026-04-15 10:55 | 51.13788 | 4.69203 | 5438 ft | 284 kts | 288° |
| 2026-04-15 10:55 | 51.14482 | 4.66256 | 4734 ft | 277 kts | 286° |
| 2026-04-15 10:55 | 51.15107 | 4.63508 | 4619 ft | 252 kts | 286° |
| 2026-04-15 10:56 | 51.15673 | 4.61017 | 4485 ft | 226 kts | 284° |
| 2026-04-15 10:56 | 51.16181 | 4.58782 | 4275 ft | 205 kts | 284° |
| 2026-04-15 10:56 | 51.16661 | 4.56649 | 3713 ft | 208 kts | 285° |
| 2026-04-15 10:56 | 51.17156 | 4.54451 | 3044 ft | 216 kts | 286° |
| 2026-04-15 10:57 | 51.17653 | 4.52221 | 2555 ft | 211 kts | 289° |
| 2026-04-15 10:57 | 51.18845 | 4.47953 | 1286 ft | 215 kts | 296° |
| 2026-04-15 10:57 | 51.19676 | 4.45849 | 807 ft | 245 kts | 298° |
| 2026-04-15 10:58 | 51.20535 | 4.43699 | 2384 ft | 199 kts | 302° |
| 2026-04-15 10:58 | 51.21303 | 4.41911 | 3758 ft | 211 kts | 299° |
| 2026-04-15 10:58 | 51.22194 | 4.39677 | 3863 ft | 265 kts | 297° |
| 2026-04-15 10:58 | 51.23208 | 4.36826 | 3594 ft | 316 kts | 290° |
| 2026-04-15 10:59 | 51.23419 | 4.33277 | 3227 ft | 339 kts | 253° |
| 2026-04-15 10:59 | 51.22201 | 4.30075 | 3086 ft | 354 kts | 222° |
| 2026-04-15 10:59 | 51.20345 | 4.27666 | 3035 ft | 332 kts | 207° |
| 2026-04-15 10:59 | 51.18398 | 4.27235 | 4353 ft | 251 kts | 170° |
| 2026-04-15 11:00 | 51.16951 | 4.28302 | 4658 ft | 214 kts | 141° |
| 2026-04-15 11:00 | 51.16210 | 4.30238 | 4173 ft | 208 kts | 109° |